BAW526 LEIB-EGLL
Flight info
| Callsign | BAW526 |
|---|---|
| Flight time | 2h 5m |
| Altitude | 38000 |
| Route | EPAMA4F EPAMA N856 EBROX DCT UMURE DCT XIKEN DCT KARES DCT ARBEK DCT REBUL DCT USKAR DCT MOPAS DCT GIROM DCT AGN DCT SECHE DCT UVELI DCT CNA DCT MANAK UY110 REVTU UP87 ROXOG ROXOG1H |
| Aircraft | A20N/M-SDGIJ1LRWXY/SB1 |
Departure
| Time | 2026-05-01 12:13 |
|---|---|
| Airport | Ibiza Airport (LEIB) |
Arrival
| Time | 2026-05-01 14:18 |
|---|---|
| Airport | London Heathrow Airport (EGLL) |
| Time | Latitude | Longitude | Altitude | Speed | Heading |
|---|---|---|---|---|---|
| 2026-05-01 11:15 | 38.87478 | 1.37047 | 8 ft | 0 kts | 333° |
| 2026-05-01 12:06 | 38.87489 | 1.37041 | 8 ft | 4 kts | 333° |
| 2026-05-01 12:07 | 38.87497 | 1.37011 | 8 ft | 6 kts | 277° |
| 2026-05-01 12:07 | 38.87483 | 1.36917 | 10 ft | 15 kts | 246° |
| 2026-05-01 12:07 | 38.87424 | 1.36793 | 8 ft | 11 kts | 212° |
| 2026-05-01 12:07 | 38.87395 | 1.36804 | 8 ft | 5 kts | 147° |
| 2026-05-01 12:08 | 38.87353 | 1.36832 | 8 ft | 9 kts | 155° |
| 2026-05-01 12:08 | 38.87287 | 1.36854 | 8 ft | 9 kts | 202° |
| 2026-05-01 12:08 | 38.87247 | 1.36771 | 8 ft | 13 kts | 242° |
| 2026-05-01 12:08 | 38.87201 | 1.36656 | 8 ft | 16 kts | 243° |
| 2026-05-01 12:09 | 38.87143 | 1.36514 | 8 ft | 19 kts | 242° |
| 2026-05-01 12:09 | 38.87075 | 1.36351 | 9 ft | 22 kts | 242° |
| 2026-05-01 12:09 | 38.87004 | 1.36183 | 7 ft | 22 kts | 240° |
| 2026-05-01 12:09 | 38.86924 | 1.36001 | 9 ft | 25 kts | 243° |
| 2026-05-01 12:10 | 38.86887 | 1.35907 | 7 ft | 11 kts | 243° |
| 2026-05-01 12:10 | 38.86803 | 1.35830 | 8 ft | 7 kts | 149° |
| 2026-05-01 12:10 | 38.86743 | 1.35873 | 5 ft | 12 kts | 150° |
| 2026-05-01 12:11 | 38.86728 | 1.35968 | 7 ft | 0 kts | 62° |
| 2026-05-01 12:12 | 38.86728 | 1.35969 | 7 ft | 0 kts | 62° |
| 2026-05-01 12:12 | 38.86763 | 1.36051 | 5 ft | 40 kts | 62° |
| 2026-05-01 12:12 | 38.87006 | 1.36639 | 7 ft | 105 kts | 62° |
| 2026-05-01 12:12 | 38.87431 | 1.37660 | 20 ft | 151 kts | 62° |
| 2026-05-01 12:13 | 38.87907 | 1.38830 | 632 ft | 143 kts | 64° |
| 2026-05-01 12:13 | 38.88255 | 1.40050 | 1174 ft | 149 kts | 75° |
| 2026-05-01 12:13 | 38.88491 | 1.41424 | 1566 ft | 167 kts | 77° |
| 2026-05-01 12:13 | 38.88732 | 1.42972 | 1953 ft | 187 kts | 77° |
| 2026-05-01 12:14 | 38.89021 | 1.44689 | 2401 ft | 207 kts | 76° |
| 2026-05-01 12:14 | 38.89361 | 1.46549 | 3153 ft | 216 kts | 75° |
| 2026-05-01 12:14 | 38.89718 | 1.48429 | 4224 ft | 218 kts | 75° |
| 2026-05-01 12:14 | 38.90089 | 1.50355 | 4946 ft | 229 kts | 74° |
| 2026-05-01 12:15 | 38.90475 | 1.52340 | 5253 ft | 230 kts | 74° |
| 2026-05-01 12:15 | 38.90819 | 1.53654 | 5696 ft | 232 kts | 62° |
| 2026-05-01 12:15 | 38.91772 | 1.55309 | 6711 ft | 232 kts | 42° |
| 2026-05-01 12:15 | 38.93015 | 1.56721 | 7458 ft | 249 kts | 41° |
| 2026-05-01 12:16 | 38.94371 | 1.58266 | 8027 ft | 272 kts | 41° |
| 2026-05-01 12:16 | 38.95830 | 1.59938 | 8760 ft | 286 kts | 41° |
| 2026-05-01 12:16 | 38.97303 | 1.61635 | 9741 ft | 291 kts | 40° |
| 2026-05-01 12:16 | 38.98820 | 1.63386 | 10693 ft | 295 kts | 40° |
| 2026-05-01 12:17 | 39.00528 | 1.64852 | 11612 ft | 298 kts | 22° |
| 2026-05-01 12:17 | 39.02523 | 1.65576 | 12494 ft | 301 kts | 5° |
| 2026-05-01 12:17 | 39.02593 | 1.65587 | 12528 ft | 301 kts | 5° |
| 2026-05-01 12:17 | 39.03212 | 1.65670 | 12795 ft | 302 kts | 4° |
| 2026-05-01 12:18 | 39.05323 | 1.65938 | 13707 ft | 307 kts | 4° |
| 2026-05-01 12:18 | 39.07466 | 1.66214 | 14536 ft | 312 kts | 3° |
| 2026-05-01 12:18 | 39.09640 | 1.66125 | 15294 ft | 316 kts | 349° |
| 2026-05-01 12:18 | 39.11760 | 1.65346 | 16052 ft | 319 kts | 335° |
| 2026-05-01 12:19 | 39.13834 | 1.64166 | 16512 ft | 337 kts | 335° |
| 2026-05-01 12:19 | 39.16054 | 1.62910 | 16730 ft | 360 kts | 335° |
| 2026-05-01 12:19 | 39.18410 | 1.61588 | 17068 ft | 377 kts | 335° |
| 2026-05-01 12:19 | 39.20836 | 1.60232 | 17773 ft | 382 kts | 335° |
| 2026-05-01 12:20 | 39.23293 | 1.58859 | 18489 ft | 388 kts | 335° |
| 2026-05-01 12:20 | 39.25789 | 1.57463 | 19126 ft | 392 kts | 335° |
| 2026-05-01 12:20 | 39.28308 | 1.56053 | 19791 ft | 396 kts | 335° |
| 2026-05-01 12:20 | 39.30852 | 1.54628 | 20446 ft | 400 kts | 335° |
| 2026-05-01 12:21 | 39.33419 | 1.53189 | 21077 ft | 405 kts | 335° |
| 2026-05-01 12:21 | 39.36015 | 1.51733 | 21707 ft | 409 kts | 335° |
| 2026-05-01 12:21 | 39.38639 | 1.50260 | 22336 ft | 413 kts | 335° |
| 2026-05-01 12:21 | 39.41287 | 1.48772 | 22971 ft | 417 kts | 335° |
| 2026-05-01 12:22 | 39.43963 | 1.47267 | 23588 ft | 421 kts | 335° |
| 2026-05-01 12:22 | 39.46666 | 1.45745 | 24133 ft | 425 kts | 335° |
| 2026-05-01 12:22 | 39.49383 | 1.44213 | 24699 ft | 427 kts | 335° |
| 2026-05-01 12:22 | 39.52113 | 1.42674 | 25232 ft | 430 kts | 335° |
| 2026-05-01 12:23 | 39.54863 | 1.41121 | 25763 ft | 432 kts | 335° |
| 2026-05-01 12:23 | 39.57636 | 1.39574 | 26273 ft | 435 kts | 337° |
| 2026-05-01 12:23 | 39.60530 | 1.38357 | 26726 ft | 440 kts | 345° |
| 2026-05-01 12:23 | 39.63553 | 1.37614 | 27199 ft | 444 kts | 352° |
| 2026-05-01 12:24 | 39.66640 | 1.37213 | 27672 ft | 447 kts | 353° |
| 2026-05-01 12:24 | 39.69751 | 1.36805 | 28118 ft | 450 kts | 353° |
| 2026-05-01 12:24 | 39.72875 | 1.36386 | 28555 ft | 453 kts | 353° |
| 2026-05-01 12:24 | 39.76024 | 1.35963 | 28984 ft | 456 kts | 353° |
| 2026-05-01 12:25 | 39.79187 | 1.35540 | 29395 ft | 459 kts | 353° |
| 2026-05-01 12:25 | 39.85578 | 1.34691 | 30204 ft | 464 kts | 352° |
| 2026-05-01 12:25 | 39.88801 | 1.34262 | 30557 ft | 466 kts | 352° |
| 2026-05-01 12:26 | 39.92038 | 1.33831 | 30918 ft | 468 kts | 352° |
| 2026-05-01 12:26 | 39.98542 | 1.32962 | 31709 ft | 470 kts | 352° |
| 2026-05-01 12:26 | 40.01792 | 1.32528 | 32185 ft | 469 kts | 352° |
| 2026-05-01 12:27 | 40.05032 | 1.32095 | 32672 ft | 468 kts | 352° |
| 2026-05-01 12:27 | 40.11447 | 1.31235 | 33580 ft | 465 kts | 352° |
| 2026-05-01 12:28 | 40.17876 | 1.30371 | 34406 ft | 463 kts | 352° |
| 2026-05-01 12:28 | 40.21078 | 1.29940 | 34768 ft | 462 kts | 352° |
| 2026-05-01 12:28 | 40.27474 | 1.29079 | 35419 ft | 462 kts | 352° |
| 2026-05-01 12:29 | 40.30672 | 1.28647 | 35719 ft | 462 kts | 352° |
| 2026-05-01 12:29 | 40.33862 | 1.28216 | 36044 ft | 461 kts | 352° |
| 2026-05-01 12:29 | 40.40231 | 1.27355 | 36682 ft | 459 kts | 352° |
| 2026-05-01 12:30 | 40.46576 | 1.26495 | 37280 ft | 458 kts | 352° |
| 2026-05-01 12:30 | 40.49745 | 1.26065 | 37556 ft | 458 kts | 352° |
| 2026-05-01 12:30 | 40.52913 | 1.25634 | 37826 ft | 457 kts | 352° |
| 2026-05-01 12:31 | 40.56077 | 1.25203 | 38098 ft | 457 kts | 352° |
| 2026-05-01 12:31 | 40.59238 | 1.24773 | 38204 ft | 456 kts | 352° |
| 2026-05-01 12:31 | 40.62385 | 1.24344 | 38217 ft | 454 kts | 352° |
| 2026-05-01 12:32 | 40.68674 | 1.23485 | 38220 ft | 454 kts | 352° |
| 2026-05-01 12:32 | 40.78111 | 1.22193 | 38224 ft | 454 kts | 352° |
| 2026-05-01 12:33 | 40.84399 | 1.21331 | 38221 ft | 454 kts | 352° |
| 2026-05-01 12:33 | 40.90688 | 1.20467 | 38228 ft | 454 kts | 352° |
| 2026-05-01 12:34 | 40.96975 | 1.19601 | 38221 ft | 454 kts | 352° |
| 2026-05-01 12:34 | 41.03265 | 1.18734 | 38216 ft | 454 kts | 352° |
| 2026-05-01 12:35 | 41.05365 | 1.18444 | 38216 ft | 454 kts | 352° |
| 2026-05-01 12:35 | 41.08494 | 1.18012 | 38215 ft | 454 kts | 352° |
| 2026-05-01 12:36 | 41.14781 | 1.17142 | 38246 ft | 454 kts | 352° |
| 2026-05-01 12:36 | 41.21076 | 1.16432 | 38243 ft | 454 kts | 353° |
| 2026-05-01 12:37 | 41.27380 | 1.15812 | 38240 ft | 454 kts | 353° |
| 2026-05-01 12:37 | 41.33676 | 1.15160 | 38231 ft | 454 kts | 353° |
| 2026-05-01 12:38 | 41.39967 | 1.14499 | 38235 ft | 453 kts | 353° |
| 2026-05-01 12:38 | 41.46234 | 1.13840 | 38217 ft | 451 kts | 353° |
| 2026-05-01 12:39 | 41.52494 | 1.13180 | 38212 ft | 452 kts | 353° |
| 2026-05-01 12:39 | 41.58763 | 1.12517 | 38209 ft | 451 kts | 353° |
| 2026-05-01 12:40 | 41.65025 | 1.11854 | 38202 ft | 451 kts | 353° |
| 2026-05-01 12:40 | 41.71282 | 1.11190 | 38198 ft | 451 kts | 353° |
| 2026-05-01 12:41 | 41.77541 | 1.10525 | 38194 ft | 451 kts | 353° |
| 2026-05-01 12:41 | 41.83762 | 1.09863 | 38186 ft | 451 kts | 353° |
| 2026-05-01 12:42 | 41.90015 | 1.09195 | 38186 ft | 451 kts | 353° |
| 2026-05-01 12:42 | 41.96276 | 1.08526 | 38189 ft | 451 kts | 353° |
| 2026-05-01 12:43 | 42.02541 | 1.07855 | 38193 ft | 451 kts | 353° |
| 2026-05-01 12:43 | 42.08801 | 1.07183 | 38195 ft | 452 kts | 353° |
| 2026-05-01 12:44 | 42.15066 | 1.06509 | 38207 ft | 452 kts | 353° |
| 2026-05-01 12:45 | 42.27604 | 1.05159 | 38231 ft | 452 kts | 353° |
| 2026-05-01 12:45 | 42.33872 | 1.04483 | 38237 ft | 452 kts | 353° |
| 2026-05-01 12:46 | 42.40134 | 1.03806 | 38243 ft | 451 kts | 353° |
| 2026-05-01 12:46 | 42.46389 | 1.03128 | 38236 ft | 451 kts | 353° |
| 2026-05-01 12:47 | 42.52650 | 1.02446 | 38242 ft | 451 kts | 353° |
| 2026-05-01 12:47 | 42.58910 | 1.01761 | 38239 ft | 452 kts | 353° |
| 2026-05-01 12:48 | 42.65180 | 1.01075 | 38251 ft | 452 kts | 353° |
| 2026-05-01 12:48 | 42.71443 | 1.00388 | 38243 ft | 452 kts | 353° |
| 2026-05-01 12:49 | 42.77709 | 0.99701 | 38217 ft | 452 kts | 353° |
| 2026-05-01 12:49 | 42.83976 | 0.99011 | 38227 ft | 452 kts | 353° |
| 2026-05-01 12:50 | 42.90232 | 0.98324 | 38211 ft | 450 kts | 353° |
| 2026-05-01 12:50 | 42.96491 | 0.97633 | 38216 ft | 451 kts | 353° |
| 2026-05-01 12:51 | 43.02746 | 0.96943 | 38207 ft | 450 kts | 353° |
| 2026-05-01 12:52 | 43.12102 | 0.95906 | 38192 ft | 450 kts | 353° |
| 2026-05-01 12:52 | 43.21458 | 0.94866 | 38190 ft | 450 kts | 353° |
| 2026-05-01 12:53 | 43.30823 | 0.93822 | 38185 ft | 450 kts | 353° |
| 2026-05-01 12:54 | 43.37063 | 0.93125 | 38185 ft | 450 kts | 353° |
| 2026-05-01 12:54 | 43.46389 | 0.92079 | 38178 ft | 450 kts | 353° |
| 2026-05-01 12:55 | 43.54750 | 0.91141 | 38183 ft | 451 kts | 353° |
| 2026-05-01 12:56 | 43.62028 | 0.90321 | 38187 ft | 452 kts | 353° |
| 2026-05-01 12:56 | 43.67284 | 0.89727 | 38182 ft | 453 kts | 353° |
| 2026-05-01 12:57 | 43.73566 | 0.89017 | 38185 ft | 453 kts | 353° |
| 2026-05-01 12:57 | 43.83004 | 0.87943 | 38204 ft | 454 kts | 352° |
| 2026-05-01 12:58 | 43.89194 | 0.86321 | 38193 ft | 452 kts | 341° |
| 2026-05-01 12:59 | 43.97872 | 0.81398 | 38188 ft | 452 kts | 333° |
| 2026-05-01 12:59 | 44.04836 | 0.76941 | 38190 ft | 451 kts | 333° |
| 2026-05-01 13:00 | 44.13365 | 0.71429 | 38184 ft | 451 kts | 333° |
| 2026-05-01 13:01 | 44.21892 | 0.65888 | 38185 ft | 450 kts | 333° |
| 2026-05-01 13:02 | 44.26055 | 0.63177 | 38184 ft | 451 kts | 333° |
| 2026-05-01 13:07 | 44.87215 | 0.22619 | 38199 ft | 451 kts | 332° |
| 2026-05-01 13:08 | 44.92886 | 0.18799 | 38194 ft | 451 kts | 332° |
| 2026-05-01 13:08 | 44.96755 | 0.16190 | 38193 ft | 451 kts | 332° |
| 2026-05-01 13:09 | 45.00986 | 0.13333 | 38180 ft | 451 kts | 332° |
| 2026-05-01 13:09 | 45.06653 | 0.09498 | 38182 ft | 452 kts | 332° |
| 2026-05-01 13:10 | 45.12316 | 0.05656 | 38183 ft | 451 kts | 332° |
| 2026-05-01 13:10 | 45.17979 | 0.01807 | 38182 ft | 451 kts | 332° |
| 2026-05-01 13:11 | 45.23638 | -0.02049 | 38182 ft | 451 kts | 332° |
| 2026-05-01 13:11 | 45.29286 | -0.05905 | 38181 ft | 451 kts | 332° |
| 2026-05-01 13:12 | 45.34941 | -0.09775 | 38185 ft | 451 kts | 332° |
| 2026-05-01 13:12 | 45.40590 | -0.13649 | 38183 ft | 450 kts | 332° |
| 2026-05-01 13:13 | 45.44450 | -0.16302 | 38181 ft | 450 kts | 332° |
| 2026-05-01 13:13 | 45.46906 | -0.17991 | 38186 ft | 451 kts | 332° |
| 2026-05-01 13:14 | 45.52551 | -0.21882 | 38187 ft | 451 kts | 332° |
| 2026-05-01 13:14 | 45.58201 | -0.25785 | 38201 ft | 452 kts | 332° |
| 2026-05-01 13:15 | 45.63832 | -0.29726 | 38182 ft | 450 kts | 329° |
| 2026-05-01 13:15 | 45.69031 | -0.34626 | 38184 ft | 446 kts | 319° |
| 2026-05-01 13:16 | 45.73907 | -0.40138 | 38192 ft | 447 kts | 320° |
| 2026-05-01 13:16 | 45.78798 | -0.45626 | 38189 ft | 446 kts | 319° |
| 2026-05-01 13:17 | 45.88551 | -0.56665 | 38190 ft | 446 kts | 319° |
| 2026-05-01 13:18 | 45.95855 | -0.64973 | 38193 ft | 447 kts | 319° |
| 2026-05-01 13:18 | 46.00722 | -0.70524 | 38196 ft | 447 kts | 319° |
| 2026-05-01 13:19 | 46.05589 | -0.76090 | 38195 ft | 447 kts | 319° |
| 2026-05-01 13:20 | 46.12880 | -0.84450 | 38188 ft | 446 kts | 319° |
| 2026-05-01 13:20 | 46.17701 | -0.89994 | 38194 ft | 446 kts | 319° |
| 2026-05-01 13:21 | 46.24980 | -0.98388 | 38186 ft | 446 kts | 319° |
| 2026-05-01 13:21 | 46.29823 | -1.03991 | 38183 ft | 446 kts | 319° |
| 2026-05-01 13:22 | 46.34661 | -1.09602 | 38184 ft | 446 kts | 319° |
| 2026-05-01 13:22 | 46.39502 | -1.15229 | 38188 ft | 446 kts | 319° |
| 2026-05-01 13:23 | 46.44334 | -1.20858 | 38203 ft | 445 kts | 318° |
| 2026-05-01 13:23 | 46.49162 | -1.26496 | 38198 ft | 445 kts | 318° |
| 2026-05-01 13:24 | 46.53984 | -1.32140 | 38203 ft | 445 kts | 318° |
| 2026-05-01 13:25 | 46.61512 | -1.40100 | 38212 ft | 449 kts | 328° |
| 2026-05-01 13:25 | 46.67122 | -1.44150 | 38208 ft | 450 kts | 331° |
| 2026-05-01 13:26 | 46.72749 | -1.48164 | 38210 ft | 450 kts | 331° |
| 2026-05-01 13:26 | 46.78381 | -1.52179 | 38208 ft | 451 kts | 331° |
| 2026-05-01 13:27 | 46.84076 | -1.56020 | 38202 ft | 452 kts | 337° |
| 2026-05-01 13:27 | 46.93318 | -1.58943 | 38196 ft | 457 kts | 354° |
| 2026-05-01 13:28 | 47.02843 | -1.59925 | 38195 ft | 457 kts | 354° |
| 2026-05-01 13:29 | 47.15539 | -1.61239 | 38192 ft | 457 kts | 354° |
| 2026-05-01 13:31 | 47.34541 | -1.63781 | 38188 ft | 457 kts | 353° |
| 2026-05-01 13:32 | 47.50361 | -1.66027 | 38198 ft | 457 kts | 352° |
| 2026-05-01 13:33 | 47.66168 | -1.68284 | 38189 ft | 456 kts | 352° |
| 2026-05-01 13:34 | 47.78807 | -1.70099 | 38189 ft | 456 kts | 352° |
| 2026-05-01 13:35 | 47.88294 | -1.71467 | 38202 ft | 457 kts | 352° |
| 2026-05-01 13:36 | 47.97790 | -1.72841 | 38215 ft | 458 kts | 352° |
| 2026-05-01 13:36 | 48.07310 | -1.74152 | 38216 ft | 458 kts | 356° |
| 2026-05-01 13:37 | 48.12621 | -1.74215 | 38215 ft | 459 kts | 358° |
| 2026-05-01 13:37 | 48.19012 | -1.74303 | 38215 ft | 459 kts | 358° |
| 2026-05-01 13:38 | 48.28599 | -1.74429 | 38201 ft | 459 kts | 358° |
| 2026-05-01 13:39 | 48.34987 | -1.74507 | 38202 ft | 459 kts | 358° |
| 2026-05-01 13:39 | 48.41377 | -1.74584 | 38204 ft | 459 kts | 358° |
| 2026-05-01 13:40 | 48.47766 | -1.74663 | 38204 ft | 459 kts | 358° |
| 2026-05-01 13:40 | 48.54157 | -1.74740 | 38204 ft | 459 kts | 358° |
| 2026-05-01 13:41 | 48.60533 | -1.74818 | 38207 ft | 460 kts | 358° |
| 2026-05-01 13:41 | 48.66933 | -1.74897 | 38215 ft | 460 kts | 358° |
| 2026-05-01 13:42 | 48.73345 | -1.74976 | 38221 ft | 461 kts | 358° |
| 2026-05-01 13:42 | 48.79757 | -1.75055 | 38220 ft | 461 kts | 358° |
| 2026-05-01 13:43 | 48.86175 | -1.75134 | 38219 ft | 461 kts | 358° |
| 2026-05-01 13:43 | 48.92588 | -1.75201 | 38220 ft | 458 kts | 359° |
| 2026-05-01 13:44 | 48.98935 | -1.74961 | 38220 ft | 457 kts | 0° |
| 2026-05-01 13:44 | 49.05299 | -1.74666 | 38221 ft | 457 kts | 0° |
| 2026-05-01 13:45 | 49.11659 | -1.74411 | 38214 ft | 457 kts | 0° |
| 2026-05-01 13:45 | 49.18026 | -1.74167 | 38216 ft | 457 kts | 0° |
| 2026-05-01 13:46 | 49.24349 | -1.73925 | 38218 ft | 457 kts | 0° |
| 2026-05-01 13:46 | 49.30707 | -1.73681 | 38218 ft | 458 kts | 0° |
| 2026-05-01 13:47 | 49.37075 | -1.73436 | 38213 ft | 458 kts | 0° |
| 2026-05-01 13:47 | 49.43444 | -1.73189 | 38214 ft | 458 kts | 0° |
| 2026-05-01 13:48 | 49.49812 | -1.72943 | 38214 ft | 458 kts | 0° |
| 2026-05-01 13:48 | 49.56166 | -1.72697 | 38212 ft | 458 kts | 0° |
| 2026-05-01 13:49 | 49.62543 | -1.72402 | 38212 ft | 458 kts | 2° |
| 2026-05-01 13:49 | 49.68912 | -1.71833 | 38212 ft | 458 kts | 2° |
| 2026-05-01 13:50 | 49.75280 | -1.71268 | 38212 ft | 459 kts | 2° |
| 2026-05-01 13:50 | 49.81654 | -1.70719 | 38212 ft | 459 kts | 2° |
| 2026-05-01 13:51 | 49.88024 | -1.70178 | 38208 ft | 458 kts | 2° |
| 2026-05-01 13:51 | 49.94392 | -1.69678 | 38211 ft | 458 kts | 2° |
| 2026-05-01 13:52 | 50.00721 | -1.68657 | 38065 ft | 456 kts | 12° |
| 2026-05-01 13:52 | 50.03777 | -1.67351 | 37576 ft | 455 kts | 18° |
| 2026-05-01 13:52 | 50.06798 | -1.65857 | 36808 ft | 457 kts | 17° |
| 2026-05-01 13:52 | 50.09849 | -1.64377 | 35884 ft | 461 kts | 17° |
| 2026-05-01 13:53 | 50.12931 | -1.62888 | 35042 ft | 464 kts | 17° |
| 2026-05-01 13:53 | 50.19127 | -1.59889 | 33245 ft | 468 kts | 18° |
| 2026-05-01 13:53 | 50.22259 | -1.58368 | 32278 ft | 472 kts | 18° |
| 2026-05-01 13:54 | 50.25378 | -1.56850 | 31615 ft | 468 kts | 18° |
| 2026-05-01 13:54 | 50.28480 | -1.55338 | 30736 ft | 469 kts | 18° |
| 2026-05-01 13:54 | 50.31618 | -1.53805 | 29511 ft | 476 kts | 18° |
| 2026-05-01 13:54 | 50.34770 | -1.52262 | 28667 ft | 473 kts | 18° |
| 2026-05-01 13:55 | 50.37902 | -1.50728 | 27980 ft | 468 kts | 19° |
| 2026-05-01 13:55 | 50.40959 | -1.49229 | 27726 ft | 453 kts | 19° |
| 2026-05-01 13:55 | 50.43929 | -1.47771 | 27209 ft | 445 kts | 19° |
| 2026-05-01 13:55 | 50.46891 | -1.46312 | 26364 ft | 447 kts | 19° |
| 2026-05-01 13:56 | 50.49849 | -1.44852 | 25703 ft | 444 kts | 19° |
| 2026-05-01 13:56 | 50.52771 | -1.43365 | 25078 ft | 440 kts | 22° |
| 2026-05-01 13:56 | 50.55542 | -1.41409 | 24465 ft | 434 kts | 30° |
| 2026-05-01 13:56 | 50.58176 | -1.39124 | 23851 ft | 431 kts | 31° |
| 2026-05-01 13:57 | 50.60798 | -1.36875 | 23191 ft | 427 kts | 31° |
| 2026-05-01 13:57 | 50.63395 | -1.34652 | 22548 ft | 423 kts | 31° |
| 2026-05-01 13:57 | 50.65965 | -1.32447 | 21863 ft | 420 kts | 31° |
| 2026-05-01 13:57 | 50.68521 | -1.30250 | 21249 ft | 417 kts | 31° |
| 2026-05-01 13:58 | 50.71053 | -1.28068 | 20643 ft | 413 kts | 31° |
| 2026-05-01 13:58 | 50.73558 | -1.25905 | 20059 ft | 409 kts | 31° |
| 2026-05-01 13:58 | 50.76047 | -1.23744 | 19495 ft | 405 kts | 32° |
| 2026-05-01 13:58 | 50.78408 | -1.21357 | 18909 ft | 401 kts | 36° |
| 2026-05-01 13:59 | 50.80734 | -1.18951 | 18338 ft | 398 kts | 35° |
| 2026-05-01 13:59 | 50.83046 | -1.16569 | 17706 ft | 395 kts | 35° |
| 2026-05-01 13:59 | 50.85337 | -1.14207 | 17110 ft | 391 kts | 35° |
| 2026-05-01 13:59 | 50.87607 | -1.11864 | 16526 ft | 388 kts | 35° |
| 2026-05-01 14:00 | 50.89865 | -1.09530 | 15894 ft | 387 kts | 35° |
| 2026-05-01 14:00 | 50.92106 | -1.07209 | 15352 ft | 383 kts | 35° |
| 2026-05-01 14:00 | 50.94325 | -1.04907 | 14799 ft | 380 kts | 35° |
| 2026-05-01 14:00 | 50.96528 | -1.02620 | 14265 ft | 377 kts | 35° |
| 2026-05-01 14:01 | 50.98715 | -1.00346 | 13692 ft | 374 kts | 35° |
| 2026-05-01 14:01 | 51.00743 | -0.97877 | 13431 ft | 359 kts | 45° |
| 2026-05-01 14:01 | 51.02421 | -0.95081 | 13322 ft | 342 kts | 52° |
| 2026-05-01 14:01 | 51.03999 | -0.92258 | 13258 ft | 342 kts | 51° |
| 2026-05-01 14:02 | 51.05588 | -0.89433 | 13249 ft | 343 kts | 51° |
| 2026-05-01 14:02 | 51.07181 | -0.86599 | 13050 ft | 344 kts | 51° |
| 2026-05-01 14:02 | 51.08766 | -0.83778 | 12742 ft | 341 kts | 51° |
| 2026-05-01 14:02 | 51.10343 | -0.80966 | 12315 ft | 339 kts | 51° |
| 2026-05-01 14:03 | 51.11910 | -0.78169 | 11887 ft | 336 kts | 51° |
| 2026-05-01 14:03 | 51.13438 | -0.75442 | 11721 ft | 323 kts | 51° |
| 2026-05-01 14:03 | 51.14896 | -0.72837 | 11350 ft | 311 kts | 51° |
| 2026-05-01 14:03 | 51.16334 | -0.70261 | 10916 ft | 310 kts | 51° |
| 2026-05-01 14:04 | 51.17761 | -0.67697 | 10517 ft | 308 kts | 51° |
| 2026-05-01 14:04 | 51.19159 | -0.65184 | 10209 ft | 304 kts | 51° |
| 2026-05-01 14:04 | 51.20571 | -0.62646 | 10046 ft | 308 kts | 51° |
| 2026-05-01 14:04 | 51.21528 | -0.60924 | 9973 ft | 306 kts | 51° |
| 2026-05-01 14:05 | 51.23397 | -0.57564 | 9519 ft | 304 kts | 51° |
| 2026-05-01 14:05 | 51.24788 | -0.55039 | 9164 ft | 301 kts | 52° |
| 2026-05-01 14:05 | 51.26161 | -0.52539 | 8791 ft | 296 kts | 52° |
| 2026-05-01 14:05 | 51.27493 | -0.50110 | 8433 ft | 285 kts | 52° |
| 2026-05-01 14:06 | 51.28763 | -0.47797 | 8288 ft | 268 kts | 52° |
| 2026-05-01 14:06 | 51.29987 | -0.45577 | 8207 ft | 268 kts | 51° |
| 2026-05-01 14:06 | 51.31479 | -0.43808 | 8160 ft | 269 kts | 22° |
| 2026-05-01 14:06 | 51.33312 | -0.43329 | 8159 ft | 270 kts | 354° |
| 2026-05-01 14:07 | 51.35169 | -0.43683 | 8156 ft | 267 kts | 351° |
| 2026-05-01 14:07 | 51.37007 | -0.44073 | 8157 ft | 267 kts | 351° |
| 2026-05-01 14:07 | 51.38842 | -0.44541 | 8151 ft | 266 kts | 341° |
| 2026-05-01 14:08 | 51.41367 | -0.48364 | 7990 ft | 252 kts | 282° |
| 2026-05-01 14:08 | 51.41476 | -0.51068 | 7716 ft | 240 kts | 257° |
| 2026-05-01 14:08 | 51.41197 | -0.53698 | 7449 ft | 240 kts | 256° |
| 2026-05-01 14:08 | 51.40905 | -0.56326 | 7177 ft | 239 kts | 256° |
| 2026-05-01 14:09 | 51.40612 | -0.58928 | 6923 ft | 236 kts | 256° |
| 2026-05-01 14:09 | 51.40320 | -0.61517 | 6645 ft | 235 kts | 256° |
| 2026-05-01 14:09 | 51.40033 | -0.64088 | 6370 ft | 235 kts | 256° |
| 2026-05-01 14:09 | 51.39741 | -0.66667 | 6088 ft | 235 kts | 256° |
| 2026-05-01 14:10 | 51.39446 | -0.69229 | 5810 ft | 233 kts | 256° |
| 2026-05-01 14:10 | 51.39157 | -0.71776 | 5536 ft | 233 kts | 256° |
| 2026-05-01 14:10 | 51.38863 | -0.74322 | 5258 ft | 232 kts | 256° |
| 2026-05-01 14:10 | 51.38918 | -0.76918 | 4979 ft | 239 kts | 283° |
| 2026-05-01 14:11 | 51.39438 | -0.79452 | 4711 ft | 239 kts | 285° |
| 2026-05-01 14:11 | 51.40517 | -0.84476 | 4154 ft | 237 kts | 285° |
| 2026-05-01 14:11 | 51.41082 | -0.86908 | 4042 ft | 230 kts | 295° |
| 2026-05-01 14:12 | 51.42173 | -0.88693 | 3985 ft | 222 kts | 330° |
| 2026-05-01 14:12 | 51.43618 | -0.89175 | 4016 ft | 206 kts | 5° |
| 2026-05-01 14:12 | 51.44881 | -0.88273 | 3986 ft | 205 kts | 46° |
| 2026-05-01 14:12 | 51.45726 | -0.86444 | 3990 ft | 202 kts | 60° |
| 2026-05-01 14:13 | 51.46481 | -0.84549 | 3988 ft | 201 kts | 60° |
| 2026-05-01 14:13 | 51.46961 | -0.83276 | 3985 ft | 201 kts | 66° |
| 2026-05-01 14:13 | 51.47523 | -0.80447 | 3904 ft | 198 kts | 87° |
| 2026-05-01 14:13 | 51.47630 | -0.78249 | 3683 ft | 197 kts | 92° |
| 2026-05-01 14:14 | 51.47650 | -0.76082 | 3424 ft | 193 kts | 95° |
| 2026-05-01 14:14 | 51.47657 | -0.73925 | 3158 ft | 193 kts | 94° |
| 2026-05-01 14:14 | 51.47663 | -0.71766 | 2911 ft | 195 kts | 94° |
| 2026-05-01 14:14 | 51.47672 | -0.69569 | 2655 ft | 197 kts | 94° |
| 2026-05-01 14:15 | 51.47678 | -0.67392 | 2384 ft | 192 kts | 94° |
| 2026-05-01 14:15 | 51.47688 | -0.65276 | 2137 ft | 188 kts | 94° |
| 2026-05-01 14:15 | 51.47695 | -0.63210 | 1881 ft | 180 kts | 94° |
| 2026-05-01 14:15 | 51.47706 | -0.61303 | 1671 ft | 161 kts | 97° |
| 2026-05-01 14:16 | 51.47709 | -0.59582 | 1454 ft | 150 kts | 96° |
| 2026-05-01 14:16 | 51.47716 | -0.57938 | 1247 ft | 143 kts | 95° |
| 2026-05-01 14:16 | 51.47723 | -0.56410 | 1068 ft | 133 kts | 97° |
| 2026-05-01 14:16 | 51.47721 | -0.54924 | 901 ft | 136 kts | 96° |
| 2026-05-01 14:17 | 51.47730 | -0.53377 | 737 ft | 141 kts | 96° |
| 2026-05-01 14:17 | 51.47736 | -0.51826 | 540 ft | 138 kts | 93° |
| 2026-05-01 14:17 | 51.47749 | -0.50296 | 335 ft | 138 kts | 92° |
| 2026-05-01 14:17 | 51.47752 | -0.48737 | 160 ft | 141 kts | 92° |
| 2026-05-01 14:18 | 51.47736 | -0.47172 | 88 ft | 135 kts | 84° |
| 2026-05-01 14:18 | 51.47757 | -0.46125 | 89 ft | 44 kts | 89° |
| 2026-05-01 14:18 | 51.47755 | -0.45651 | 86 ft | 41 kts | 92° |
| 2026-05-01 14:18 | 51.47738 | -0.45502 | 88 ft | 16 kts | 127° |
| 2026-05-01 14:19 | 51.47610 | -0.45492 | 89 ft | 14 kts | 229° |
| 2026-05-01 14:19 | 51.47593 | -0.45634 | 88 ft | 14 kts | 270° |
| 2026-05-01 14:19 | 51.47592 | -0.45743 | 86 ft | 16 kts | 269° |
| 2026-05-01 14:19 | 51.47590 | -0.45999 | 86 ft | 19 kts | 269° |
| 2026-05-01 14:20 | 51.47591 | -0.46143 | 86 ft | 20 kts | 270° |
| 2026-05-01 14:20 | 51.47592 | -0.46645 | 86 ft | 25 kts | 270° |
| 2026-05-01 14:20 | 51.47583 | -0.46906 | 90 ft | 23 kts | 270° |
| 2026-05-01 14:21 | 51.47580 | -0.47169 | 88 ft | 25 kts | 270° |
| 2026-05-01 14:21 | 51.47579 | -0.47453 | 89 ft | 26 kts | 269° |
| 2026-05-01 14:21 | 51.47580 | -0.47754 | 89 ft | 28 kts | 269° |
| 2026-05-01 14:22 | 51.47577 | -0.48282 | 86 ft | 23 kts | 270° |
| 2026-05-01 14:22 | 51.47567 | -0.48445 | 91 ft | 11 kts | 238° |
| 2026-05-01 14:22 | 51.47487 | -0.48475 | 86 ft | 14 kts | 180° |
| 2026-05-01 14:22 | 51.47397 | -0.48475 | 86 ft | 9 kts | 180° |
| 2026-05-01 14:23 | 51.47362 | -0.48519 | 86 ft | 7 kts | 257° |
| 2026-05-01 14:23 | 51.47361 | -0.48572 | 86 ft | 1 kts | 269° |
| 2026-05-01 14:23 | 51.47361 | -0.48594 | 86 ft | 0 kts | 269° |